Time;durP1;ratioP1;P1;durP2;ratioP2;P2;SDS_P1;SDS_P2;PMS_P1;PMS_P2;Temp;Humidity;BMP_temperature;BMP_pressure;BME280_temperature;BME280_humidity;BME280_pressure;Samples;Min_cycle;Max_cycle;Signal;HPM_P1;HPM_P2
2021/04/25 00:00:55;;;;;;;8.00;2.10;;;;;;;-143.98;100.00;68091.63;5082221;28;20078;-80
2021/04/25 00:03:21;;;;;;;9.02;2.30;;;;;;;-143.98;100.00;68091.63;5102187;28;20060;-80
2021/04/25 00:05:48;;;;;;;9.00;2.45;;;;;;;-143.98;100.00;68091.63;5101154;28;20059;-80
2021/04/25 00:08:23;;;;;;;6.45;2.00;;;;;;;-143.98;100.00;68091.63;5081817;28;20090;-80
2021/04/25 00:10:50;;;;;;;11.40;2.63;;;;;;;-143.98;100.00;68091.63;5067231;28;20052;-80
2021/04/25 00:13:19;;;;;;;6.57;1.92;;;;;;;-143.98;100.00;68091.63;5083817;28;20090;-80
2021/04/25 00:15:45;;;;;;;5.70;2.33;;;;;;;-143.98;100.00;68091.63;5068138;28;20433;-80
2021/04/25 00:18:15;;;;;;;7.00;2.30;;;;;;;-143.98;100.00;68091.63;5082096;28;20360;-80
2021/04/25 00:20:41;;;;;;;10.18;2.33;;;;;;;-143.98;100.00;68091.63;5081718;28;20154;-79
2021/04/25 00:23:08;;;;;;;18.80;2.67;;;;;;;-143.98;100.00;68091.63;5082721;28;20134;-79
2021/04/25 00:25:35;;;;;;;10.73;2.95;;;;;;;-143.98;100.00;68091.63;5079434;28;20063;-79
2021/04/25 00:28:07;;;;;;;4.95;2.17;;;;;;;-143.98;100.00;68091.63;5084463;28;20060;-79
2021/04/25 00:30:33;;;;;;;10.00;2.60;;;;;;;-143.98;100.00;68091.63;5084780;28;20083;-79
2021/04/25 00:33:00;;;;;;;8.20;2.65;;;;;;;-143.98;100.00;68091.63;5080489;28;20063;-79
2021/04/25 00:35:32;;;;;;;9.65;2.28;;;;;;;-143.98;100.00;68091.63;5079790;28;20052;-79
2021/04/25 00:38:02;;;;;;;10.25;2.17;;;;;;;-143.98;100.00;68091.63;5065554;28;20083;-79
2021/04/25 00:40:35;;;;;;;14.05;2.50;;;;;;;-143.98;100.00;68091.63;5078880;28;20066;-80
2021/04/25 00:43:01;;;;;;;10.32;2.33;;;;;;;-143.98;100.00;68091.63;5062316;28;20059;-80
2021/04/25 00:45:27;;;;;;;10.18;2.70;;;;;;;-143.98;100.00;68091.63;5086145;28;20072;-79
2021/04/25 00:47:57;;;;;;;7.13;2.17;;;;;;;-143.98;100.00;68091.63;5068902;28;20198;-80
2021/04/25 00:50:24;;;;;;;12.20;2.47;;;;;;;-143.98;100.00;68091.63;5077083;28;20049;-80
2021/04/25 00:52:56;;;;;;;4.57;1.48;;;;;;;-143.98;100.00;68091.63;5055714;28;20075;-80
2021/04/25 00:55:27;;;;;;;15.73;2.55;;;;;;;-143.98;100.00;68091.63;5031294;28;20061;-80
2021/04/25 00:57:58;;;;;;;7.05;2.08;;;;;;;-143.98;100.00;68091.63;5057995;28;20099;-79
2021/04/25 01:00:25;;;;;;;6.10;1.63;;;;;;;-143.98;100.00;68091.63;5049573;28;20123;-80
2021/04/25 01:02:51;;;;;;;7.28;1.77;;;;;;;-143.98;100.00;68091.63;5034962;28;20058;-80
2021/04/25 01:05:19;;;;;;;12.25;2.03;;;;;;;-143.98;100.00;68091.63;5038628;28;20424;-80
2021/04/25 01:07:52;;;;;;;9.02;3.03;;;;;;;-143.98;100.00;68091.63;5038982;28;20075;-79
2021/04/25 01:10:19;;;;;;;7.22;1.40;;;;;;;-143.98;100.00;68091.63;5037935;28;20061;-80
2021/04/25 01:12:45;;;;;;;5.47;1.50;;;;;;;-143.98;100.00;68091.63;5038375;28;20068;-80
2021/04/25 01:15:14;;;;;;;5.65;1.80;;;;;;;-143.98;100.00;68091.63;5039230;28;20057;-80
2021/04/25 01:17:43;;;;;;;10.32;1.65;;;;;;;-143.98;100.00;68091.63;5040138;28;20060;-79
2021/04/25 01:20:11;;;;;;;7.35;1.67;;;;;;;-143.98;100.00;68091.63;5021820;28;20196;-80
2021/04/25 01:22:38;;;;;;;10.00;1.73;;;;;;;-143.98;100.00;68091.63;5024141;28;20053;-79
2021/04/25 01:25:08;;;;;;;6.50;1.40;;;;;;;-143.98;100.00;68091.63;5053497;28;20072;-80
2021/04/25 01:27:34;;;;;;;7.10;1.50;;;;;;;-143.98;100.00;68091.63;5060135;28;20068;-80
2021/04/25 01:30:02;;;;;;;5.68;1.75;;;;;;;-143.98;100.00;68091.63;5044720;28;20123;-80
2021/04/25 01:32:32;;;;;;;13.35;1.98;;;;;;;-143.98;100.00;68091.63;5062311;28;20357;-80
2021/04/25 01:34:59;;;;;;;6.78;2.00;;;;;;;-143.98;100.00;68091.63;5045863;28;20144;-80
2021/04/25 01:37:28;;;;;;;6.57;1.50;;;;;;;-143.98;100.00;68091.63;5070784;28;20142;-80
2021/04/25 01:39:54;;;;;;;8.13;2.78;;;;;;;-143.98;100.00;68091.63;5055373;28;20051;-80
2021/04/25 01:42:20;;;;;;;11.32;2.35;;;;;;;-143.98;100.00;68091.63;5072290;28;20036;-80
2021/04/25 01:44:47;;;;;;;13.38;2.95;;;;;;;-143.98;100.00;68091.63;5083532;28;20077;-79
2021/04/25 01:47:16;;;;;;;14.50;2.55;;;;;;;-143.98;100.00;68091.63;5059218;28;20336;-80
2021/04/25 01:49:42;;;;;;;9.40;2.15;;;;;;;-143.98;100.00;68091.63;5059982;28;20148;-79
2021/04/25 01:52:11;;;;;;;8.32;2.03;;;;;;;-143.98;100.00;68091.63;5060681;28;20348;-80
2021/04/25 01:54:38;;;;;;;7.63;2.05;;;;;;;-143.98;100.00;68091.63;5060789;28;20113;-80
2021/04/25 01:57:05;;;;;;;5.70;2.03;;;;;;;-143.98;100.00;68091.63;5063131;28;20199;-79
2021/04/25 01:59:33;;;;;;;6.63;2.60;;;;;;;-143.98;100.00;68091.63;5063649;28;20064;-79
2021/04/25 02:02:00;;;;;;;8.80;1.77;;;;;;;-143.98;100.00;68091.63;5063000;28;20052;-80
2021/04/25 02:04:26;;;;;;;13.32;3.88;;;;;;;-143.98;100.00;68091.63;5042684;28;20052;-79
2021/04/25 02:06:53;;;;;;;9.23;2.05;;;;;;;-143.98;100.00;68091.63;5058920;28;20064;-80
2021/04/25 02:09:19;;;;;;;7.03;1.90;;;;;;;-143.98;100.00;68091.63;5059279;28;20072;-80
2021/04/25 02:11:55;;;;;;;7.78;2.00;;;;;;;-143.98;100.00;68091.63;5059227;28;20471;-80
2021/04/25 02:14:21;;;;;;;7.22;1.50;;;;;;;-143.98;100.00;68091.63;5060879;28;20057;-80
2021/04/25 02:16:47;;;;;;;7.82;1.80;;;;;;;-143.98;100.00;68091.63;5062379;28;20057;-79
2021/04/25 02:19:13;;;;;;;8.43;1.85;;;;;;;-143.98;100.00;68091.63;5061668;28;20053;-80
2021/04/25 02:21:43;;;;;;;4.07;1.67;;;;;;;-143.98;100.00;68091.63;5061671;28;20057;-79
2021/04/25 02:24:09;;;;;;;4.70;2.10;;;;;;;-143.98;100.00;68091.63;5061595;28;20068;-79
2021/04/25 02:26:35;;;;;;;5.90;2.28;;;;;;;-143.98;100.00;68091.63;5060396;28;20382;-80
2021/04/25 02:29:02;;;;;;;13.15;2.47;;;;;;;-143.98;100.00;68091.63;5058947;28;20155;-80
2021/04/25 02:31:32;;;;;;;8.82;2.05;;;;;;;-143.98;100.00;68091.63;5059673;28;20059;-80
2021/04/25 02:33:59;;;;;;;10.05;2.53;;;;;;;-143.98;100.00;68091.63;5046695;28;20068;-80
2021/04/25 02:36:26;;;;;;;5.55;1.58;;;;;;;-143.98;100.00;68091.63;5063019;28;20171;-79
2021/04/25 02:38:52;;;;;;;12.38;1.80;;;;;;;-143.98;100.00;68091.63;5046361;28;20356;-80
2021/04/25 02:41:18;;;;;;;8.25;2.15;;;;;;;-143.98;100.00;68091.63;5062711;28;20065;-79
2021/04/25 02:43:45;;;;;;;11.25;2.60;;;;;;;-143.98;100.00;68091.63;5063951;28;20071;-80
2021/04/25 02:46:11;;;;;;;12.85;2.10;;;;;;;-143.98;100.00;68091.63;5064658;28;20067;-80
2021/04/25 02:48:38;;;;;;;15.65;2.03;;;;;;;-143.98;100.00;68091.63;5067790;28;20053;-80
2021/04/25 02:51:04;;;;;;;13.80;2.28;;;;;;;-143.98;100.00;68091.63;5073146;28;20053;-80
2021/04/25 02:53:31;;;;;;;11.85;2.65;;;;;;;-143.98;100.00;68091.63;5069087;28;20057;-80
2021/04/25 02:55:57;;;;;;;11.52;2.40;;;;;;;-143.98;100.00;68091.63;5063767;28;20053;-80
2021/04/25 02:58:26;;;;;;;15.10;2.03;;;;;;;-143.98;100.00;68091.63;5072915;28;20052;-80
2021/04/25 03:00:52;;;;;;;7.43;2.13;;;;;;;-143.98;100.00;68091.63;5080982;28;20079;-80
2021/04/25 03:03:18;;;;;;;12.43;2.60;;;;;;;-143.98;100.00;68091.63;5081541;28;20061;-79
2021/04/25 03:05:45;;;;;;;6.80;2.08;;;;;;;-143.98;100.00;68091.63;5082649;28;20048;-79
2021/04/25 03:08:11;;;;;;;6.70;2.17;;;;;;;-143.98;100.00;68091.63;5083016;28;20122;-79
2021/04/25 03:10:37;;;;;;;10.00;2.17;;;;;;;-143.98;100.00;68091.63;5072342;28;20057;-79
2021/04/25 03:13:03;;;;;;;3.97;1.83;;;;;;;-143.98;100.00;68091.63;5061888;28;20424;-79
2021/04/25 03:15:30;;;;;;;9.43;2.53;;;;;;;-143.98;100.00;68091.63;5062063;28;20048;-80
2021/04/25 03:17:56;;;;;;;8.80;1.55;;;;;;;-143.98;100.00;68091.63;5061528;28;20060;-80
2021/04/25 03:20:23;;;;;;;6.13;1.60;;;;;;;-143.98;100.00;68091.63;5061303;28;20064;-80
2021/04/25 03:22:49;;;;;;;8.60;1.77;;;;;;;-143.98;100.00;68091.63;5074672;28;20159;-79
2021/04/25 03:25:17;;;;;;;12.07;2.58;;;;;;;-143.98;100.00;68091.63;5098284;28;20071;-79
2021/04/25 03:27:44;;;;;;;8.50;2.05;;;;;;;-143.98;100.00;68091.63;5081140;28;20168;-80
2021/04/25 03:30:12;;;;;;;9.27;1.90;;;;;;;-143.98;100.00;68091.63;5082150;28;20060;-80
2021/04/25 03:32:38;;;;;;;6.35;2.47;;;;;;;-143.98;100.00;68091.63;5081419;28;20053;-80
2021/04/25 03:35:07;;;;;;;8.80;2.10;;;;;;;-143.98;100.00;68091.63;5081600;28;20056;-80
2021/04/25 03:37:34;;;;;;;14.80;3.00;;;;;;;-143.98;100.00;68091.63;5065423;28;20053;-80
2021/04/25 03:40:01;;;;;;;17.40;3.00;;;;;;;-143.98;100.00;68091.63;5080913;28;20056;-80
2021/04/25 03:42:27;;;;;;;9.40;2.42;;;;;;;-143.98;100.00;68091.63;5064046;28;20075;-79
2021/04/25 03:45:07;;;;;;;8.10;2.33;;;;;;;-143.98;100.00;68091.63;5064124;28;20056;-80
2021/04/25 03:47:33;;;;;;;17.17;2.78;;;;;;;-143.98;100.00;68091.63;5082753;28;20056;-80
2021/04/25 03:50:00;;;;;;;8.93;2.05;;;;;;;-143.98;100.00;68091.63;5097495;28;20533;-81
2021/04/25 03:52:26;;;;;;;16.98;2.50;;;;;;;-143.98;100.00;68091.63;5081886;28;20052;-80
2021/04/25 03:54:54;;;;;;;8.30;2.22;;;;;;;-143.98;100.00;68091.63;5062626;28;20083;-79
2021/04/25 03:57:20;;;;;;;15.23;3.15;;;;;;;-143.98;100.00;68091.63;5078734;28;20111;-80
2021/04/25 03:59:46;;;;;;;13.23;3.72;;;;;;;-143.98;100.00;68091.63;5080481;28;20060;-80
2021/04/25 04:02:14;;;;;;;14.10;2.85;;;;;;;-143.98;100.00;68091.63;5079330;28;20071;-80
2021/04/25 04:04:41;;;;;;;14.27;2.35;;;;;;;-143.98;100.00;68091.63;5080665;28;20158;-80
2021/04/25 04:07:07;;;;;;;15.13;2.67;;;;;;;-143.98;100.00;68091.63;5063816;28;20056;-80
2021/04/25 04:09:33;;;;;;;17.75;3.05;;;;;;;-143.98;100.00;68091.63;5081228;28;20444;-80
2021/04/25 04:11:59;;;;;;;20.67;4.03;;;;;;;-143.98;100.00;68091.63;5087151;28;20064;-80
2021/04/25 04:14:26;;;;;;;7.05;2.05;;;;;;;-143.98;100.00;68091.63;5106299;28;20063;-80
2021/04/25 04:16:52;;;;;;;16.17;2.15;;;;;;;-143.98;100.00;68091.63;5072465;28;20052;-80
2021/04/25 04:19:18;;;;;;;14.95;2.70;;;;;;;-143.98;100.00;68091.63;5087038;28;20395;-80
2021/04/25 04:21:45;;;;;;;10.25;2.08;;;;;;;-143.98;100.00;68091.63;5097801;28;20075;-81
2021/04/25 04:24:11;;;;;;;10.25;2.25;;;;;;;-143.98;100.00;68091.63;5085224;28;20044;-80
2021/04/25 04:26:37;;;;;;;13.55;2.42;;;;;;;-143.98;100.00;68091.63;5071929;28;20126;-80
2021/04/25 04:29:13;;;;;;;10.32;2.03;;;;;;;-143.98;100.00;68091.63;5068886;28;20057;-81
2021/04/25 04:31:39;;;;;;;11.48;2.50;;;;;;;-143.98;100.00;68091.63;5061879;28;20580;-81
2021/04/25 04:34:06;;;;;;;18.85;2.05;;;;;;;-143.98;100.00;68091.63;5061617;28;20432;-81
2021/04/25 04:36:32;;;;;;;10.32;2.13;;;;;;;-143.98;100.00;68091.63;5061696;28;20072;-80
2021/04/25 04:38:59;;;;;;;9.48;1.67;;;;;;;-143.98;100.00;68091.63;5060106;28;20057;-80
2021/04/25 04:41:25;;;;;;;8.52;1.75;;;;;;;-143.98;100.00;68091.63;5059983;28;20056;-80
2021/04/25 04:43:51;;;;;;;8.73;1.90;;;;;;;-143.98;100.00;68091.63;5060762;28;20118;-82
2021/04/25 04:46:18;;;;;;;7.25;1.73;;;;;;;-143.98;100.00;68091.63;5058864;28;20096;-80
2021/04/25 04:48:45;;;;;;;9.13;1.73;;;;;;;-143.98;100.00;68091.63;5058078;28;20170;-80
2021/04/25 04:51:12;;;;;;;7.93;1.95;;;;;;;-143.98;100.00;68091.63;5058303;28;20053;-80
2021/04/25 04:53:38;;;;;;;8.73;1.65;;;;;;;-143.98;100.00;68091.63;5041578;28;20064;-80
2021/04/25 04:56:14;;;;;;;11.60;1.60;;;;;;;-143.98;100.00;68091.63;5044219;28;20064;-80
2021/04/25 04:58:40;;;;;;;4.28;1.20;;;;;;;-143.98;100.00;68091.63;5050511;28;20067;-80
2021/04/25 05:01:07;;;;;;;8.70;1.15;;;;;;;-143.98;100.00;68091.63;5066799;28;20058;-80
2021/04/25 05:03:34;;;;;;;7.00;1.55;;;;;;;-143.98;100.00;68091.63;5069275;28;20076;-80
2021/04/25 05:06:00;;;;;;;8.23;1.25;;;;;;;-143.98;100.00;68091.63;5086528;28;20053;-80
2021/04/25 05:08:29;;;;;;;7.30;1.77;;;;;;;-143.98;100.00;68091.63;5047093;28;20079;-81
2021/04/25 05:10:58;;;;;;;12.85;1.80;;;;;;;-143.98;100.00;68091.63;5062736;28;20432;-81
2021/04/25 05:13:28;;;;;;;9.60;2.30;;;;;;;-143.98;100.00;68091.63;5061635;28;20067;-80
2021/04/25 05:15:54;;;;;;;16.20;1.80;;;;;;;-143.98;100.00;68091.63;5059880;28;20064;-79
2021/04/25 05:18:21;;;;;;;7.03;1.60;;;;;;;-143.98;100.00;68091.63;5052448;28;20064;-80
2021/04/25 05:20:47;;;;;;;14.13;1.90;;;;;;;-143.98;100.00;68091.63;5063047;28;20052;-80
2021/04/25 05:23:14;;;;;;;10.95;1.90;;;;;;;-143.98;100.00;68091.63;5079827;28;20064;-80
2021/04/25 05:25:40;;;;;;;12.85;2.30;;;;;;;-143.98;100.00;68091.63;5062457;28;20052;-80
2021/04/25 05:28:06;;;;;;;11.40;2.50;;;;;;;-143.98;100.00;68091.63;5080357;28;20180;-80
2021/04/25 05:30:33;;;;;;;18.25;2.08;;;;;;;-143.98;100.00;68091.63;5081437;28;20056;-80
2021/04/25 05:33:05;;;;;;;17.05;2.35;;;;;;;-143.98;100.00;68091.63;5096764;28;20060;-80
2021/04/25 05:35:32;;;;;;;6.72;2.05;;;;;;;-143.98;100.00;68091.63;5062430;28;20060;-80
2021/04/25 05:37:58;;;;;;;16.10;2.80;;;;;;;-143.98;100.00;68091.63;5077650;28;20431;-80
2021/04/25 05:40:24;;;;;;;5.25;1.55;;;;;;;-143.98;100.00;68091.63;5096971;28;20068;-80
2021/04/25 05:42:51;;;;;;;7.28;1.60;;;;;;;-143.98;100.00;68091.63;5096426;28;20056;-80
2021/04/25 05:45:21;;;;;;;10.68;2.05;;;;;;;-143.98;100.00;68091.63;5079831;28;20363;-80
2021/04/25 05:47:58;;;;;;;7.47;1.50;;;;;;;-143.98;100.00;68091.63;5080267;28;20056;-81
2021/04/25 05:50:28;;;;;;;9.07;1.75;;;;;;;-143.98;100.00;68091.63;5083841;28;20082;-81
2021/04/25 05:52:55;;;;;;;11.38;1.75;;;;;;;-143.98;100.00;68091.63;5081108;28;20066;-81
2021/04/25 05:55:25;;;;;;;14.77;2.20;;;;;;;-143.98;100.00;68091.63;5079063;28;20082;-81
2021/04/25 05:57:55;;;;;;;12.63;3.60;;;;;;;-143.98;100.00;68091.63;5081358;28;20056;-80
2021/04/25 06:00:24;;;;;;;23.23;5.18;;;;;;;-143.98;100.00;68091.63;5081876;28;20052;-81
2021/04/25 06:02:50;;;;;;;31.25;6.60;;;;;;;-143.98;100.00;68091.63;5073378;28;20067;-80
2021/04/25 06:05:16;;;;;;;31.70;7.80;;;;;;;-143.98;100.00;68091.63;5074986;28;20053;-81
2021/04/25 06:07:43;;;;;;;20.65;5.10;;;;;;;-143.98;100.00;68091.63;5069150;28;20246;-81
2021/04/25 06:10:12;;;;;;;29.40;8.32;;;;;;;-143.98;100.00;68091.63;5089424;28;20182;-81
2021/04/25 06:12:39;;;;;;;18.23;5.35;;;;;;;-143.98;100.00;68091.63;5077089;28;20056;-81
2021/04/25 06:15:07;;;;;;;29.40;9.13;;;;;;;-143.98;100.00;68091.63;5091414;28;20060;-81
2021/04/25 06:17:34;;;;;;;14.60;4.03;;;;;;;-143.98;100.00;68091.63;5085786;28;20056;-81
2021/04/25 06:20:00;;;;;;;12.52;3.03;;;;;;;-143.98;100.00;68091.63;5084366;28;20151;-81
2021/04/25 06:22:26;;;;;;;9.13;2.00;;;;;;;-143.98;100.00;68091.63;5084360;28;20060;-80
2021/04/25 06:24:56;;;;;;;7.90;1.77;;;;;;;-143.98;100.00;68091.63;5082771;28;20075;-80
2021/04/25 06:27:24;;;;;;;8.05;2.13;;;;;;;-143.98;100.00;68091.63;5084350;28;20060;-81
2021/04/25 06:29:51;;;;;;;6.70;1.75;;;;;;;-143.98;100.00;68091.63;5083396;28;20078;-81
2021/04/25 06:32:20;;;;;;;6.18;2.05;;;;;;;-143.98;100.00;68091.63;5090002;28;20060;-80
2021/04/25 06:34:49;;;;;;;15.52;2.30;;;;;;;-143.98;100.00;68091.63;5074244;28;20074;-80
2021/04/25 06:37:15;;;;;;;11.18;1.95;;;;;;;-143.98;100.00;68091.63;5088931;28;20067;-80
2021/04/25 06:39:54;;;;;;;8.18;1.65;;;;;;;-143.98;100.00;68091.63;5084456;28;20118;-80
2021/04/25 06:42:20;;;;;;;7.22;2.10;;;;;;;-143.98;100.00;68091.63;5083555;28;20211;-80
2021/04/25 06:44:46;;;;;;;6.00;1.75;;;;;;;-143.98;100.00;68091.63;5082558;28;20451;-80
2021/04/25 06:47:13;;;;;;;9.82;1.88;;;;;;;-143.98;100.00;68091.63;5067190;28;20095;-80
2021/04/25 06:49:41;;;;;;;6.25;1.40;;;;;;;-143.98;100.00;68091.63;5083331;28;20052;-80
2021/04/25 06:52:12;;;;;;;9.43;1.52;;;;;;;-143.98;100.00;68091.63;5072853;28;20040;-80
2021/04/25 06:54:46;;;;;;;13.73;2.20;;;;;;;-143.98;100.00;68091.63;5095164;28;20040;-80
2021/04/25 06:57:16;;;;;;;8.07;2.03;;;;;;;-143.98;100.00;68091.63;5093378;28;20086;-79
2021/04/25 06:59:42;;;;;;;8.80;1.58;;;;;;;-143.98;100.00;68091.63;5095069;28;20049;-81
2021/04/25 07:02:09;;;;;;;11.43;1.38;;;;;;;-143.98;100.00;68091.63;5081016;28;20057;-81
2021/04/25 07:04:35;;;;;;;14.13;1.42;;;;;;;-143.98;100.00;68091.63;5098345;28;20443;-81
2021/04/25 07:07:02;;;;;;;4.95;1.65;;;;;;;-143.98;100.00;68091.63;5080557;28;20403;-81
2021/04/25 07:09:45;;;;;;;8.15;1.58;;;;;;;-143.98;100.00;68091.63;5081987;28;20064;-81
2021/04/25 07:12:16;;;;;;;7.10;1.25;;;;;;;-143.98;100.00;68091.63;5078887;28;20059;-82
2021/04/25 07:14:43;;;;;;;4.72;1.10;;;;;;;-143.98;100.00;68091.63;5060845;28;20139;-82
2021/04/25 07:17:09;;;;;;;7.93;1.27;;;;;;;-143.98;100.00;68091.63;5070704;28;20114;-81
2021/04/25 07:19:43;;;;;;;11.63;1.80;;;;;;;-143.98;100.00;68091.63;5084586;28;20061;-82
2021/04/25 07:22:11;;;;;;;8.05;1.50;;;;;;;-143.98;100.00;68091.63;5066003;28;20075;-82
2021/04/25 07:24:37;;;;;;;6.53;1.15;;;;;;;-143.98;100.00;68091.63;5092443;28;20460;-82
2021/04/25 07:27:04;;;;;;;5.28;1.30;;;;;;;-143.98;100.00;68091.63;5083297;28;20048;-82
2021/04/25 07:29:40;;;;;;;5.18;1.20;;;;;;;-143.98;100.00;68091.63;5084690;28;20057;-82
2021/04/25 07:32:09;;;;;;;5.18;1.13;;;;;;;-143.98;100.00;68091.63;5080814;28;20056;-81
2021/04/25 07:34:36;;;;;;;4.55;1.33;;;;;;;-143.98;100.00;68091.63;5082742;28;20051;-81
2021/04/25 07:37:05;;;;;;;7.60;1.77;;;;;;;-143.98;100.00;68091.63;5064824;28;20063;-81
2021/04/25 07:39:35;;;;;;;4.32;0.98;;;;;;;-143.98;100.00;68091.63;5069704;28;20083;-80
2021/04/25 07:42:03;;;;;;;7.35;1.63;;;;;;;-143.98;100.00;68091.63;5078562;28;20070;-80
2021/04/25 07:44:29;;;;;;;9.05;1.52;;;;;;;-143.98;100.00;68091.63;5087545;28;20052;-80
2021/04/25 07:47:02;;;;;;;6.38;1.23;;;;;;;-143.98;100.00;68091.63;5048319;28;20071;-81
2021/04/25 07:49:30;;;;;;;9.27;1.63;;;;;;;-143.98;100.00;68091.63;5064504;28;20056;-81
2021/04/25 07:51:56;;;;;;;9.63;1.77;;;;;;;-143.98;100.00;68091.63;5073330;28;20060;-81
2021/04/25 07:54:23;;;;;;;9.07;1.50;;;;;;;-143.98;100.00;68091.63;5054845;28;20068;-80
2021/04/25 07:56:51;;;;;;;3.65;1.20;;;;;;;-143.98;100.00;68091.63;5072775;28;20061;-81
2021/04/25 07:59:18;;;;;;;8.43;2.50;;;;;;;-143.98;100.00;68091.63;5083898;28;20087;-80
2021/04/25 08:01:45;;;;;;;11.30;1.92;;;;;;;-143.98;100.00;68091.63;5084013;28;20068;-80
2021/04/25 08:04:18;;;;;;;5.78;1.60;;;;;;;-143.98;100.00;68091.63;5079431;28;20044;-80
2021/04/25 08:06:44;;;;;;;4.60;1.38;;;;;;;-143.98;100.00;68091.63;5062522;28;20256;-79
2021/04/25 08:09:10;;;;;;;5.00;1.67;;;;;;;-143.98;100.00;68091.63;5079558;28;20060;-82
2021/04/25 08:11:37;;;;;;;2.75;1.50;;;;;;;-143.98;100.00;68091.63;5079498;28;20382;-82
2021/04/25 08:14:04;;;;;;;7.97;1.70;;;;;;;-143.98;100.00;68091.63;5047138;28;20409;-82
2021/04/25 08:16:31;;;;;;;13.30;2.28;;;;;;;-143.98;100.00;68091.63;5062455;28;20053;-79
2021/04/25 08:18:57;;;;;;;8.15;2.08;;;;;;;-143.98;100.00;68091.63;5079474;28;20351;-81
2021/04/25 08:21:26;;;;;;;7.22;1.83;;;;;;;-143.98;100.00;68091.63;5062902;28;20060;-80
2021/04/25 08:23:53;;;;;;;4.10;1.73;;;;;;;-143.98;100.00;68091.63;5046999;28;20488;-80
2021/04/25 08:26:19;;;;;;;7.80;1.90;;;;;;;-143.98;100.00;68091.63;5080235;28;20057;-80
2021/04/25 08:28:45;;;;;;;6.32;1.67;;;;;;;-143.98;100.00;68091.63;5081869;28;20055;-80
2021/04/25 08:31:13;;;;;;;4.82;1.60;;;;;;;-143.98;100.00;68091.63;5078237;28;20131;-80
2021/04/25 08:33:40;;;;;;;3.53;1.80;;;;;;;-143.98;100.00;68091.63;5061110;28;20110;-80
2021/04/25 08:36:07;;;;;;;5.85;1.90;;;;;;;-143.98;100.00;68091.63;5077368;28;20061;-81
2021/04/25 08:38:34;;;;;;;3.65;1.85;;;;;;;-143.98;100.00;68091.63;5061854;28;20052;-81
2021/04/25 08:41:04;;;;;;;4.97;1.80;;;;;;;-143.98;100.00;68091.63;5078975;28;20053;-81
2021/04/25 08:43:31;;;;;;;7.40;1.55;;;;;;;-143.98;100.00;68091.63;5079927;28;20408;-80
2021/04/25 08:45:58;;;;;;;4.63;1.67;;;;;;;-143.98;100.00;68091.63;5080319;28;20145;-81
2021/04/25 08:48:29;;;;;;;3.60;1.95;;;;;;;-143.98;100.00;68091.63;5062300;28;20064;-81
2021/04/25 08:50:56;;;;;;;5.38;1.55;;;;;;;-143.98;100.00;68091.63;5058238;28;20064;-81
2021/04/25 08:53:23;;;;;;;6.82;2.00;;;;;;;-143.98;100.00;68091.63;5071799;28;20056;-81
2021/04/25 08:55:55;;;;;;;8.05;2.00;;;;;;;-143.98;100.00;68091.63;5087358;28;20059;-81
2021/04/25 08:58:23;;;;;;;4.43;1.77;;;;;;;-143.98;100.00;68091.63;5101052;28;20062;-81
2021/04/25 09:00:54;;;;;;;4.03;1.70;;;;;;;-143.98;100.00;68091.63;5099941;28;20059;-81
2021/04/25 09:03:20;;;;;;;5.10;1.70;;;;;;;-143.98;100.00;68091.63;5065296;28;20056;-81
2021/04/25 09:05:48;;;;;;;3.83;1.67;;;;;;;-143.98;100.00;68091.63;5065087;28;20309;-81
2021/04/25 09:08:17;;;;;;;5.75;1.83;;;;;;;-143.98;100.00;68091.63;5100843;28;20060;-80
2021/04/25 09:10:53;;;;;;;3.95;2.03;;;;;;;-143.98;100.00;68091.63;5063574;28;20052;-81
2021/04/25 09:13:32;;;;;;;4.88;1.88;;;;;;;-143.98;100.00;68091.63;5081358;28;20055;-81
2021/04/25 09:16:10;;;;;;;6.00;1.80;;;;;;;-143.98;100.00;68091.63;5103073;28;20136;-81
2021/04/25 09:18:37;;;;;;;6.65;1.88;;;;;;;-143.98;100.00;68091.63;5089495;28;20062;-81
2021/04/25 09:21:06;;;;;;;5.78;1.60;;;;;;;-143.98;100.00;68091.63;5070276;28;20106;-81
2021/04/25 09:23:33;;;;;;;3.35;1.58;;;;;;;-143.98;100.00;68091.63;5064502;28;20056;-81
2021/04/25 09:26:05;;;;;;;5.38;1.52;;;;;;;-143.98;100.00;68091.63;5063838;28;20066;-81
2021/04/25 09:28:33;;;;;;;1.95;1.20;;;;;;;-143.98;100.00;68091.63;5066037;28;20036;-81
2021/04/25 09:31:02;;;;;;;4.10;1.65;;;;;;;-143.98;100.00;68091.63;5075064;28;20056;-81
2021/04/25 09:33:47;;;;;;;4.43;1.40;;;;;;;-143.98;100.00;68091.63;5069467;28;20064;-80
2021/04/25 09:36:16;;;;;;;4.05;1.20;;;;;;;-143.98;100.00;68091.63;5052405;28;20116;-80
2021/04/25 09:38:43;;;;;;;3.08;1.42;;;;;;;-143.98;100.00;68091.63;5061550;28;20060;-81
2021/04/25 09:41:24;;;;;;;4.43;1.48;;;;;;;-143.98;100.00;68091.63;5062289;28;20064;-80
2021/04/25 09:43:51;;;;;;;4.85;1.55;;;;;;;-143.98;100.00;68091.63;5062909;28;20063;-80
2021/04/25 09:46:17;;;;;;;4.00;1.58;;;;;;;-143.98;100.00;68091.63;5062968;28;20138;-80
2021/04/25 09:48:43;;;;;;;5.60;1.25;;;;;;;-143.98;100.00;68091.63;5060922;28;20199;-81
2021/04/25 09:51:22;;;;;;;2.65;1.40;;;;;;;-143.98;100.00;68091.63;5043770;28;20064;-81
2021/04/25 09:53:52;;;;;;;2.42;0.98;;;;;;;-143.98;100.00;68091.63;5060695;28;20053;-80
2021/04/25 09:56:23;;;;;;;3.95;1.30;;;;;;;-143.98;100.00;68091.63;5064074;28;20272;-80
2021/04/25 09:58:58;;;;;;;2.30;1.13;;;;;;;-143.98;100.00;68091.63;5062735;28;20072;-81
2021/04/25 10:01:26;;;;;;;2.15;1.15;;;;;;;-143.98;100.00;68091.63;5063144;28;20060;-82
2021/04/25 10:03:52;;;;;;;4.88;1.20;;;;;;;-143.98;100.00;68091.63;5064564;28;20056;-81
2021/04/25 10:06:20;;;;;;;5.38;1.10;;;;;;;-143.98;100.00;68091.63;5070335;28;20534;-81
2021/04/25 10:08:49;;;;;;;4.97;1.08;;;;;;;-143.98;100.00;68091.63;5098471;28;20129;-81
2021/04/25 10:11:21;;;;;;;4.63;1.10;;;;;;;-143.98;100.00;68091.63;5087012;28;20086;-81
2021/04/25 10:13:48;;;;;;;1.73;0.88;;;;;;;-143.98;100.00;68091.63;5083148;28;20078;-82
2021/04/25 10:16:21;;;;;;;2.95;1.00;;;;;;;-143.98;100.00;68091.63;5095333;28;20142;-81
2021/04/25 10:18:48;;;;;;;1.65;0.93;;;;;;;-143.98;100.00;68091.63;5079815;28;20252;-81
2021/04/25 10:21:15;;;;;;;2.60;0.98;;;;;;;-143.98;100.00;68091.63;5062339;28;20372;-82
2021/04/25 10:23:46;;;;;;;3.78;1.20;;;;;;;-143.98;100.00;68091.63;5060993;28;20233;-82
2021/04/25 10:26:15;;;;;;;2.40;0.98;;;;;;;-143.98;100.00;68091.63;5057208;28;20260;-81
2021/04/25 10:29:04;;;;;;;2.63;0.93;;;;;;;-143.98;100.00;68091.63;5041637;28;20087;-81
2021/04/25 10:31:46;;;;;;;2.53;0.88;;;;;;;-143.98;100.00;68091.63;5058325;28;20061;-82
2021/04/25 10:34:22;;;;;;;5.65;1.10;;;;;;;-143.98;100.00;68091.63;5057351;28;20099;-82
2021/04/25 10:36:50;;;;;;;1.30;0.73;;;;;;;-143.98;100.00;68091.63;5058329;28;20071;-82
2021/04/25 10:39:39;;;;;;;5.60;1.25;;;;;;;-143.98;100.00;68091.63;5074528;28;20071;-82
2021/04/25 10:42:37;;;;;;;1.77;1.00;;;;;;;-143.98;100.00;68091.63;5076210;28;20049;-81
2021/04/25 10:45:07;;;;;;;4.13;0.75;;;;;;;-143.98;100.00;68091.63;5056325;28;20110;-81
2021/04/25 10:47:36;;;;;;;2.28;1.15;;;;;;;-143.98;100.00;68091.63;5069227;28;20116;-81
2021/04/25 10:50:26;;;;;;;3.92;1.08;;;;;;;-143.98;100.00;68091.63;5085466;28;20061;-82
2021/04/25 10:53:16;;;;;;;4.28;0.95;;;;;;;-143.98;100.00;68091.63;5057090;28;20062;-82
2021/04/25 10:55:42;;;;;;;3.22;1.00;;;;;;;-143.98;100.00;68091.63;5057095;28;20049;-80
2021/04/25 10:58:08;;;;;;;2.17;0.82;;;;;;;-143.98;100.00;68091.63;5073033;28;20079;-80
2021/04/25 11:00:40;;;;;;;2.30;1.00;;;;;;;-143.98;100.00;68091.63;5070139;28;20052;-80
2021/04/25 11:03:12;;;;;;;4.38;0.98;;;;;;;-143.98;100.00;68091.63;5066403;28;20052;-81
2021/04/25 11:05:43;;;;;;;4.07;0.98;;;;;;;-143.98;100.00;68091.63;5070576;28;20057;-80
2021/04/25 11:08:39;;;;;;;2.53;1.00;;;;;;;-143.98;100.00;68091.63;5084195;28;20309;-81
2021/04/25 11:11:13;;;;;;;2.88;0.75;;;;;;;-143.98;100.00;68091.63;5077914;28;20049;-81
2021/04/25 11:13:46;;;;;;;2.85;1.13;;;;;;;-143.98;100.00;68091.63;5083778;28;20261;-82